sensor_id;sensor_type;location;lat;lon;timestamp;temperature;humidity
15926;DHT22;8062;53.882;10.642;2023-04-22T00:00:41;6.30;99.90
15926;DHT22;8062;53.882;10.642;2023-04-22T00:02:01;6.30;99.90
15926;DHT22;8062;53.882;10.642;2023-04-22T00:03:20;6.30;99.90
15926;DHT22;8062;53.882;10.642;2023-04-22T00:04:42;6.30;99.90
15926;DHT22;8062;53.882;10.642;2023-04-22T00:06:04;6.30;99.90
15926;DHT22;8062;53.882;10.642;2023-04-22T00:07:23;6.40;99.90
15926;DHT22;8062;53.882;10.642;2023-04-22T00:08:43;6.40;99.90
15926;DHT22;8062;53.882;10.642;2023-04-22T00:10:03;6.50;99.90
15926;DHT22;8062;53.882;10.642;2023-04-22T00:11:22;6.50;99.90
15926;DHT22;8062;53.882;10.642;2023-04-22T00:12:42;6.50;99.90
15926;DHT22;8062;53.882;10.642;2023-04-22T00:14:01;6.50;99.90
15926;DHT22;8062;53.882;10.642;2023-04-22T00:15:21;6.60;99.90
15926;DHT22;8062;53.882;10.642;2023-04-22T00:16:40;6.60;99.90
15926;DHT22;8062;53.882;10.642;2023-04-22T00:18:00;6.60;99.90
15926;DHT22;8062;53.882;10.642;2023-04-22T00:19:19;6.60;99.90
15926;DHT22;8062;53.882;10.642;2023-04-22T00:20:41;6.50;99.90
15926;DHT22;8062;53.882;10.642;2023-04-22T00:22:02;6.50;99.90
15926;DHT22;8062;53.882;10.642;2023-04-22T00:23:22;6.40;99.90
15926;DHT22;8062;53.882;10.642;2023-04-22T00:24:41;6.40;99.90
15926;DHT22;8062;53.882;10.642;2023-04-22T00:26:01;6.40;99.90
15926;DHT22;8062;53.882;10.642;2023-04-22T00:27:21;6.30;99.90
15926;DHT22;8062;53.882;10.642;2023-04-22T00:28:40;6.30;99.90
15926;DHT22;8062;53.882;10.642;2023-04-22T00:30:00;6.30;99.90
15926;DHT22;8062;53.882;10.642;2023-04-22T00:31:20;6.50;99.90
15926;DHT22;8062;53.882;10.642;2023-04-22T00:32:39;6.40;99.90
15926;DHT22;8062;53.882;10.642;2023-04-22T00:33:59;6.50;99.90
15926;DHT22;8062;53.882;10.642;2023-04-22T00:35:19;6.70;99.90
15926;DHT22;8062;53.882;10.642;2023-04-22T00:36:38;6.80;99.90
15926;DHT22;8062;53.882;10.642;2023-04-22T00:37:58;6.80;99.90
15926;DHT22;8062;53.882;10.642;2023-04-22T00:39:17;6.80;99.90
15926;DHT22;8062;53.882;10.642;2023-04-22T00:40:37;6.80;99.90
15926;DHT22;8062;53.882;10.642;2023-04-22T00:41:57;6.80;99.90
15926;DHT22;8062;53.882;10.642;2023-04-22T00:43:17;6.90;99.90
15926;DHT22;8062;53.882;10.642;2023-04-22T00:44:36;6.90;99.90
15926;DHT22;8062;53.882;10.642;2023-04-22T00:45:56;6.90;99.90
15926;DHT22;8062;53.882;10.642;2023-04-22T00:47:16;6.90;99.90
15926;DHT22;8062;53.882;10.642;2023-04-22T00:48:38;7.00;99.90
15926;DHT22;8062;53.882;10.642;2023-04-22T00:49:59;6.90;99.90
15926;DHT22;8062;53.882;10.642;2023-04-22T00:51:19;6.90;99.90
15926;DHT22;8062;53.882;10.642;2023-04-22T00:52:38;6.90;99.90
15926;DHT22;8062;53.882;10.642;2023-04-22T00:53:58;6.80;99.90
15926;DHT22;8062;53.882;10.642;2023-04-22T00:55:20;6.80;99.90
15926;DHT22;8062;53.882;10.642;2023-04-22T00:56:39;6.70;99.90
15926;DHT22;8062;53.882;10.642;2023-04-22T00:58:00;6.70;99.90
15926;DHT22;8062;53.882;10.642;2023-04-22T00:59:22;6.70;99.90
15926;DHT22;8062;53.882;10.642;2023-04-22T01:00:42;6.80;99.90
15926;DHT22;8062;53.882;10.642;2023-04-22T01:02:02;6.80;99.90
15926;DHT22;8062;53.882;10.642;2023-04-22T01:03:22;6.80;99.90
15926;DHT22;8062;53.882;10.642;2023-04-22T01:04:42;6.80;99.90
15926;DHT22;8062;53.882;10.642;2023-04-22T01:06:01;6.70;99.90
15926;DHT22;8062;53.882;10.642;2023-04-22T01:07:21;6.70;99.90
15926;DHT22;8062;53.882;10.642;2023-04-22T01:08:41;6.80;99.90
15926;DHT22;8062;53.882;10.642;2023-04-22T01:10:01;6.70;99.90
15926;DHT22;8062;53.882;10.642;2023-04-22T01:11:21;6.70;99.90
15926;DHT22;8062;53.882;10.642;2023-04-22T01:12:41;6.70;99.90
15926;DHT22;8062;53.882;10.642;2023-04-22T01:14:02;6.70;99.90
15926;DHT22;8062;53.882;10.642;2023-04-22T01:15:22;6.70;99.90
15926;DHT22;8062;53.882;10.642;2023-04-22T01:16:42;6.70;99.90
15926;DHT22;8062;53.882;10.642;2023-04-22T01:18:02;6.70;99.90
15926;DHT22;8062;53.882;10.642;2023-04-22T01:19:22;6.70;99.90
15926;DHT22;8062;53.882;10.642;2023-04-22T01:20:42;6.70;99.90
15926;DHT22;8062;53.882;10.642;2023-04-22T01:22:02;6.70;99.90
15926;DHT22;8062;53.882;10.642;2023-04-22T01:23:22;6.80;99.90
15926;DHT22;8062;53.882;10.642;2023-04-22T01:24:42;6.70;99.90
15926;DHT22;8062;53.882;10.642;2023-04-22T01:26:01;6.70;99.90
15926;DHT22;8062;53.882;10.642;2023-04-22T01:27:21;6.70;99.90
15926;DHT22;8062;53.882;10.642;2023-04-22T01:28:40;6.80;99.90
15926;DHT22;8062;53.882;10.642;2023-04-22T01:30:00;6.80;99.90
15926;DHT22;8062;53.882;10.642;2023-04-22T01:31:19;6.80;99.90
15926;DHT22;8062;53.882;10.642;2023-04-22T01:32:40;6.70;99.90
15926;DHT22;8062;53.882;10.642;2023-04-22T01:34:00;6.70;99.90
15926;DHT22;8062;53.882;10.642;2023-04-22T01:35:20;6.60;99.90
15926;DHT22;8062;53.882;10.642;2023-04-22T01:36:39;6.60;99.90
15926;DHT22;8062;53.882;10.642;2023-04-22T01:38:00;6.40;99.90
15926;DHT22;8062;53.882;10.642;2023-04-22T01:39:20;6.30;99.90
15926;DHT22;8062;53.882;10.642;2023-04-22T01:40:40;6.30;99.90
15926;DHT22;8062;53.882;10.642;2023-04-22T01:41:59;6.20;99.90
15926;DHT22;8062;53.882;10.642;2023-04-22T01:43:20;6.20;99.90
15926;DHT22;8062;53.882;10.642;2023-04-22T01:44:40;6.20;99.90
15926;DHT22;8062;53.882;10.642;2023-04-22T01:46:00;6.20;99.90
15926;DHT22;8062;53.882;10.642;2023-04-22T01:47:20;6.20;99.90
15926;DHT22;8062;53.882;10.642;2023-04-22T01:48:39;6.10;99.90
15926;DHT22;8062;53.882;10.642;2023-04-22T01:49:59;6.00;99.90
15926;DHT22;8062;53.882;10.642;2023-04-22T01:51:19;5.90;99.90
15926;DHT22;8062;53.882;10.642;2023-04-22T01:52:39;5.80;99.90
15926;DHT22;8062;53.882;10.642;2023-04-22T01:53:58;5.80;99.90
15926;DHT22;8062;53.882;10.642;2023-04-22T01:55:18;5.70;99.90
15926;DHT22;8062;53.882;10.642;2023-04-22T01:56:38;5.70;99.90
15926;DHT22;8062;53.882;10.642;2023-04-22T01:57:58;5.70;99.90
15926;DHT22;8062;53.882;10.642;2023-04-22T01:59:19;5.80;99.90
15926;DHT22;8062;53.882;10.642;2023-04-22T02:00:39;5.70;99.90
15926;DHT22;8062;53.882;10.642;2023-04-22T02:01:58;5.70;99.90
15926;DHT22;8062;53.882;10.642;2023-04-22T02:03:18;5.70;99.90
15926;DHT22;8062;53.882;10.642;2023-04-22T02:04:38;5.60;99.90
15926;DHT22;8062;53.882;10.642;2023-04-22T02:05:58;5.60;99.90
15926;DHT22;8062;53.882;10.642;2023-04-22T02:07:17;5.60;99.90
15926;DHT22;8062;53.882;10.642;2023-04-22T02:08:37;5.60;99.90
15926;DHT22;8062;53.882;10.642;2023-04-22T02:09:58;5.60;99.90
15926;DHT22;8062;53.882;10.642;2023-04-22T02:11:17;5.50;99.90
15926;DHT22;8062;53.882;10.642;2023-04-22T02:12:37;5.50;99.90
15926;DHT22;8062;53.882;10.642;2023-04-22T02:13:56;5.50;99.90
15926;DHT22;8062;53.882;10.642;2023-04-22T02:15:16;5.50;99.90
15926;DHT22;8062;53.882;10.642;2023-04-22T02:16:35;5.50;99.90
15926;DHT22;8062;53.882;10.642;2023-04-22T02:17:55;5.50;99.90
15926;DHT22;8062;53.882;10.642;2023-04-22T02:19:14;5.40;99.90
15926;DHT22;8062;53.882;10.642;2023-04-22T02:20:35;5.50;99.90
15926;DHT22;8062;53.882;10.642;2023-04-22T02:21:54;5.50;99.90
15926;DHT22;8062;53.882;10.642;2023-04-22T02:23:14;5.40;99.90
15926;DHT22;8062;53.882;10.642;2023-04-22T02:24:35;5.40;99.90
15926;DHT22;8062;53.882;10.642;2023-04-22T02:25:55;5.50;99.90
15926;DHT22;8062;53.882;10.642;2023-04-22T02:27:15;5.50;99.90
15926;DHT22;8062;53.882;10.642;2023-04-22T02:28:34;5.50;99.90
15926;DHT22;8062;53.882;10.642;2023-04-22T02:29:54;5.50;99.90
15926;DHT22;8062;53.882;10.642;2023-04-22T02:31:14;5.50;99.90
15926;DHT22;8062;53.882;10.642;2023-04-22T02:32:34;5.40;99.90
15926;DHT22;8062;53.882;10.642;2023-04-22T02:33:54;5.30;99.90
15926;DHT22;8062;53.882;10.642;2023-04-22T02:35:14;5.30;99.90
15926;DHT22;8062;53.882;10.642;2023-04-22T02:36:34;5.30;99.90
15926;DHT22;8062;53.882;10.642;2023-04-22T02:37:54;5.30;99.90
15926;DHT22;8062;53.882;10.642;2023-04-22T02:39:15;5.40;99.90
15926;DHT22;8062;53.882;10.642;2023-04-22T02:40:35;5.40;99.90
15926;DHT22;8062;53.882;10.642;2023-04-22T02:41:54;5.50;99.90
15926;DHT22;8062;53.882;10.642;2023-04-22T02:43:14;5.50;99.90
15926;DHT22;8062;53.882;10.642;2023-04-22T02:44:34;5.60;99.90
15926;DHT22;8062;53.882;10.642;2023-04-22T02:45:53;5.60;99.90
15926;DHT22;8062;53.882;10.642;2023-04-22T02:47:13;5.60;99.90
15926;DHT22;8062;53.882;10.642;2023-04-22T02:48:32;5.60;99.90
15926;DHT22;8062;53.882;10.642;2023-04-22T02:49:52;5.50;99.90
15926;DHT22;8062;53.882;10.642;2023-04-22T02:51:12;5.40;99.90
15926;DHT22;8062;53.882;10.642;2023-04-22T02:52:32;5.40;99.90
15926;DHT22;8062;53.882;10.642;2023-04-22T02:53:52;5.30;99.90
15926;DHT22;8062;53.882;10.642;2023-04-22T02:55:12;5.30;99.90
15926;DHT22;8062;53.882;10.642;2023-04-22T02:56:32;5.30;99.90
15926;DHT22;8062;53.882;10.642;2023-04-22T02:57:51;5.40;99.90
15926;DHT22;8062;53.882;10.642;2023-04-22T02:59:11;5.50;99.90
15926;DHT22;8062;53.882;10.642;2023-04-22T03:00:30;5.50;99.90
15926;DHT22;8062;53.882;10.642;2023-04-22T03:01:50;5.50;99.90
15926;DHT22;8062;53.882;10.642;2023-04-22T03:03:23;5.60;99.90
15926;DHT22;8062;53.882;10.642;2023-04-22T03:04:43;5.60;99.90
15926;DHT22;8062;53.882;10.642;2023-04-22T03:06:03;5.60;99.90
15926;DHT22;8062;53.882;10.642;2023-04-22T03:07:23;5.70;99.90
15926;DHT22;8062;53.882;10.642;2023-04-22T03:08:43;5.70;99.90
15926;DHT22;8062;53.882;10.642;2023-04-22T03:10:03;5.70;99.90
15926;DHT22;8062;53.882;10.642;2023-04-22T03:11:23;5.70;99.90
15926;DHT22;8062;53.882;10.642;2023-04-22T03:12:43;5.80;99.90
15926;DHT22;8062;53.882;10.642;2023-04-22T03:14:02;5.80;99.90
15926;DHT22;8062;53.882;10.642;2023-04-22T03:15:21;5.80;99.90
15926;DHT22;8062;53.882;10.642;2023-04-22T03:16:41;5.80;99.90
15926;DHT22;8062;53.882;10.642;2023-04-22T03:18:01;5.80;99.90
15926;DHT22;8062;53.882;10.642;2023-04-22T03:19:21;5.90;99.90
15926;DHT22;8062;53.882;10.642;2023-04-22T03:20:42;5.90;99.90
15926;DHT22;8062;53.882;10.642;2023-04-22T03:22:01;5.90;99.90
15926;DHT22;8062;53.882;10.642;2023-04-22T03:23:21;6.00;99.90
15926;DHT22;8062;53.882;10.642;2023-04-22T03:24:41;6.00;99.90
15926;DHT22;8062;53.882;10.642;2023-04-22T03:26:02;6.00;99.90
15926;DHT22;8062;53.882;10.642;2023-04-22T03:27:21;6.10;99.90
15926;DHT22;8062;53.882;10.642;2023-04-22T03:28:41;6.00;99.90
15926;DHT22;8062;53.882;10.642;2023-04-22T03:30:01;6.00;99.90
15926;DHT22;8062;53.882;10.642;2023-04-22T03:31:21;6.00;99.90
15926;DHT22;8062;53.882;10.642;2023-04-22T03:32:42;5.90;99.90
15926;DHT22;8062;53.882;10.642;2023-04-22T03:34:14;5.90;99.90
15926;DHT22;8062;53.882;10.642;2023-04-22T03:35:35;5.90;99.90
15926;DHT22;8062;53.882;10.642;2023-04-22T03:36:55;5.80;99.90
15926;DHT22;8062;53.882;10.642;2023-04-22T03:38:15;5.80;99.90
15926;DHT22;8062;53.882;10.642;2023-04-22T03:39:34;5.70;99.90
15926;DHT22;8062;53.882;10.642;2023-04-22T03:40:54;5.70;99.90
15926;DHT22;8062;53.882;10.642;2023-04-22T03:42:40;5.80;99.90
15926;DHT22;8062;53.882;10.642;2023-04-22T03:44:00;5.70;99.90
15926;DHT22;8062;53.882;10.642;2023-04-22T03:45:20;5.80;99.90
15926;DHT22;8062;53.882;10.642;2023-04-22T03:46:47;5.80;99.90
15926;DHT22;8062;53.882;10.642;2023-04-22T03:48:12;5.90;99.90
15926;DHT22;8062;53.882;10.642;2023-04-22T03:49:37;5.80;99.90
15926;DHT22;8062;53.882;10.642;2023-04-22T03:50:56;5.80;99.90
15926;DHT22;8062;53.882;10.642;2023-04-22T03:52:18;5.80;99.90
15926;DHT22;8062;53.882;10.642;2023-04-22T03:53:45;5.70;99.90
15926;DHT22;8062;53.882;10.642;2023-04-22T03:55:09;5.60;99.90
15926;DHT22;8062;53.882;10.642;2023-04-22T03:56:29;5.50;99.90
15926;DHT22;8062;53.882;10.642;2023-04-22T03:57:53;5.50;99.90
15926;DHT22;8062;53.882;10.642;2023-04-22T03:59:13;5.50;99.90
15926;DHT22;8062;53.882;10.642;2023-04-22T04:00:33;5.60;99.90
15926;DHT22;8062;53.882;10.642;2023-04-22T04:02:01;5.60;99.90
15926;DHT22;8062;53.882;10.642;2023-04-22T04:03:20;5.60;99.90
15926;DHT22;8062;53.882;10.642;2023-04-22T04:04:43;5.70;99.90
15926;DHT22;8062;53.882;10.642;2023-04-22T04:06:03;5.70;99.90
15926;DHT22;8062;53.882;10.642;2023-04-22T04:07:23;5.60;99.90
15926;DHT22;8062;53.882;10.642;2023-04-22T04:08:43;5.60;99.90
15926;DHT22;8062;53.882;10.642;2023-04-22T04:10:03;5.50;99.90
15926;DHT22;8062;53.882;10.642;2023-04-22T04:11:23;5.50;99.90
15926;DHT22;8062;53.882;10.642;2023-04-22T04:12:43;5.50;99.90
15926;DHT22;8062;53.882;10.642;2023-04-22T04:14:04;5.50;99.90
15926;DHT22;8062;53.882;10.642;2023-04-22T04:15:40;5.50;99.90
15926;DHT22;8062;53.882;10.642;2023-04-22T04:17:00;5.40;99.90
15926;DHT22;8062;53.882;10.642;2023-04-22T04:18:26;5.30;99.90
15926;DHT22;8062;53.882;10.642;2023-04-22T04:19:48;5.40;99.90
15926;DHT22;8062;53.882;10.642;2023-04-22T04:21:07;5.40;99.90
15926;DHT22;8062;53.882;10.642;2023-04-22T04:22:31;5.40;99.90
15926;DHT22;8062;53.882;10.642;2023-04-22T04:23:53;5.30;99.90
15926;DHT22;8062;53.882;10.642;2023-04-22T04:25:17;5.30;99.90
15926;DHT22;8062;53.882;10.642;2023-04-22T04:26:39;5.30;99.90
15926;DHT22;8062;53.882;10.642;2023-04-22T04:28:08;5.30;99.90
15926;DHT22;8062;53.882;10.642;2023-04-22T04:29:29;5.40;99.90
15926;DHT22;8062;53.882;10.642;2023-04-22T04:31:04;5.50;99.90
15926;DHT22;8062;53.882;10.642;2023-04-22T04:32:25;5.40;99.90
15926;DHT22;8062;53.882;10.642;2023-04-22T04:33:45;5.50;99.90
15926;DHT22;8062;53.882;10.642;2023-04-22T04:35:06;5.50;99.90
15926;DHT22;8062;53.882;10.642;2023-04-22T04:36:26;5.60;99.90
15926;DHT22;8062;53.882;10.642;2023-04-22T04:37:47;5.70;99.90
15926;DHT22;8062;53.882;10.642;2023-04-22T04:39:07;5.80;99.90
15926;DHT22;8062;53.882;10.642;2023-04-22T04:40:29;5.90;99.90
15926;DHT22;8062;53.882;10.642;2023-04-22T04:42:00;6.00;99.90
15926;DHT22;8062;53.882;10.642;2023-04-22T04:43:22;6.10;99.90
15926;DHT22;8062;53.882;10.642;2023-04-22T04:44:49;6.10;99.90
15926;DHT22;8062;53.882;10.642;2023-04-22T04:46:11;6.20;99.90
15926;DHT22;8062;53.882;10.642;2023-04-22T04:47:31;6.20;99.90
15926;DHT22;8062;53.882;10.642;2023-04-22T04:48:59;6.30;99.90
15926;DHT22;8062;53.882;10.642;2023-04-22T04:50:23;6.40;99.90
15926;DHT22;8062;53.882;10.642;2023-04-22T04:51:46;6.50;99.90
15926;DHT22;8062;53.882;10.642;2023-04-22T04:53:06;6.50;99.90
15926;DHT22;8062;53.882;10.642;2023-04-22T04:54:30;6.60;99.90
15926;DHT22;8062;53.882;10.642;2023-04-22T04:55:51;6.70;99.90
15926;DHT22;8062;53.882;10.642;2023-04-22T04:57:15;6.80;99.90
15926;DHT22;8062;53.882;10.642;2023-04-22T04:58:35;6.90;99.90
15926;DHT22;8062;53.882;10.642;2023-04-22T05:00:06;7.00;99.90
15926;DHT22;8062;53.882;10.642;2023-04-22T05:01:26;7.20;99.90
15926;DHT22;8062;53.882;10.642;2023-04-22T05:02:48;7.30;99.90
15926;DHT22;8062;53.882;10.642;2023-04-22T05:04:08;7.40;99.90
15926;DHT22;8062;53.882;10.642;2023-04-22T05:05:30;7.50;99.90
15926;DHT22;8062;53.882;10.642;2023-04-22T05:06:50;7.60;99.90
15926;DHT22;8062;53.882;10.642;2023-04-22T05:08:10;7.70;99.90
15926;DHT22;8062;53.882;10.642;2023-04-22T05:09:33;7.80;99.90
15926;DHT22;8062;53.882;10.642;2023-04-22T05:10:55;7.90;99.90
15926;DHT22;8062;53.882;10.642;2023-04-22T05:12:15;7.90;99.90
15926;DHT22;8062;53.882;10.642;2023-04-22T05:13:35;8.00;99.90
15926;DHT22;8062;53.882;10.642;2023-04-22T05:14:55;8.10;99.90
15926;DHT22;8062;53.882;10.642;2023-04-22T05:16:15;8.10;99.90
15926;DHT22;8062;53.882;10.642;2023-04-22T05:17:34;8.20;99.90
15926;DHT22;8062;53.882;10.642;2023-04-22T05:18:54;8.20;99.90
15926;DHT22;8062;53.882;10.642;2023-04-22T05:20:14;8.30;99.90
15926;DHT22;8062;53.882;10.642;2023-04-22T05:21:34;8.40;99.90
15926;DHT22;8062;53.882;10.642;2023-04-22T05:22:54;8.40;99.90
15926;DHT22;8062;53.882;10.642;2023-04-22T05:24:14;8.50;99.90
15926;DHT22;8062;53.882;10.642;2023-04-22T05:25:33;8.50;99.90
15926;DHT22;8062;53.882;10.642;2023-04-22T05:26:59;8.50;99.90
15926;DHT22;8062;53.882;10.642;2023-04-22T05:28:19;8.60;99.90
15926;DHT22;8062;53.882;10.642;2023-04-22T05:29:43;8.60;99.90
15926;DHT22;8062;53.882;10.642;2023-04-22T05:31:04;8.60;99.90
15926;DHT22;8062;53.882;10.642;2023-04-22T05:32:24;8.60;99.90
15926;DHT22;8062;53.882;10.642;2023-04-22T05:33:44;8.70;99.90
15926;DHT22;8062;53.882;10.642;2023-04-22T05:35:04;8.80;99.90
15926;DHT22;8062;53.882;10.642;2023-04-22T05:36:23;8.90;99.90
15926;DHT22;8062;53.882;10.642;2023-04-22T05:37:43;8.90;99.90
15926;DHT22;8062;53.882;10.642;2023-04-22T05:39:03;9.00;99.90
15926;DHT22;8062;53.882;10.642;2023-04-22T05:40:25;9.00;99.90
15926;DHT22;8062;53.882;10.642;2023-04-22T05:41:44;9.10;99.90
15926;DHT22;8062;53.882;10.642;2023-04-22T05:43:04;9.20;99.90
15926;DHT22;8062;53.882;10.642;2023-04-22T05:44:23;9.30;99.90
15926;DHT22;8062;53.882;10.642;2023-04-22T05:45:43;9.40;99.90
15926;DHT22;8062;53.882;10.642;2023-04-22T05:47:05;9.50;99.90
15926;DHT22;8062;53.882;10.642;2023-04-22T05:48:24;9.50;99.90
15926;DHT22;8062;53.882;10.642;2023-04-22T05:49:56;9.70;99.90
15926;DHT22;8062;53.882;10.642;2023-04-22T05:51:31;9.70;99.90
15926;DHT22;8062;53.882;10.642;2023-04-22T05:52:51;9.80;99.90
15926;DHT22;8062;53.882;10.642;2023-04-22T05:54:11;9.90;99.90
15926;DHT22;8062;53.882;10.642;2023-04-22T05:55:31;10.00;99.90
15926;DHT22;8062;53.882;10.642;2023-04-22T05:56:50;10.10;99.90
15926;DHT22;8062;53.882;10.642;2023-04-22T05:58:10;10.20;99.90
15926;DHT22;8062;53.882;10.642;2023-04-22T05:59:39;10.30;99.90
15926;DHT22;8062;53.882;10.642;2023-04-22T06:00:59;10.30;99.90
15926;DHT22;8062;53.882;10.642;2023-04-22T06:02:48;10.40;99.90
15926;DHT22;8062;53.882;10.642;2023-04-22T06:04:08;10.60;99.90
15926;DHT22;8062;53.882;10.642;2023-04-22T06:05:28;10.60;99.90
15926;DHT22;8062;53.882;10.642;2023-04-22T06:06:50;10.70;99.90
15926;DHT22;8062;53.882;10.642;2023-04-22T06:08:12;10.90;99.90
15926;DHT22;8062;53.882;10.642;2023-04-22T06:09:31;11.00;99.90
15926;DHT22;8062;53.882;10.642;2023-04-22T06:10:51;11.10;99.90
15926;DHT22;8062;53.882;10.642;2023-04-22T06:12:11;11.20;99.90
15926;DHT22;8062;53.882;10.642;2023-04-22T06:13:30;11.30;99.90
15926;DHT22;8062;53.882;10.642;2023-04-22T06:14:50;11.50;99.10
15926;DHT22;8062;53.882;10.642;2023-04-22T06:16:10;11.70;99.30
15926;DHT22;8062;53.882;10.642;2023-04-22T06:17:29;11.90;98.90
15926;DHT22;8062;53.882;10.642;2023-04-22T06:18:49;12.10;98.30
15926;DHT22;8062;53.882;10.642;2023-04-22T06:20:10;12.20;98.90
15926;DHT22;8062;53.882;10.642;2023-04-22T06:21:30;12.30;99.50
15926;DHT22;8062;53.882;10.642;2023-04-22T06:22:50;12.40;97.50
15926;DHT22;8062;53.882;10.642;2023-04-22T06:24:10;12.60;97.30
15926;DHT22;8062;53.882;10.642;2023-04-22T06:25:33;12.60;98.00
15926;DHT22;8062;53.882;10.642;2023-04-22T06:26:53;12.70;97.70
15926;DHT22;8062;53.882;10.642;2023-04-22T06:28:13;13.00;96.90
15926;DHT22;8062;53.882;10.642;2023-04-22T06:29:33;13.10;96.70
15926;DHT22;8062;53.882;10.642;2023-04-22T06:30:55;13.30;97.20
15926;DHT22;8062;53.882;10.642;2023-04-22T06:32:17;13.50;97.30
15926;DHT22;8062;53.882;10.642;2023-04-22T06:33:36;13.70;96.90
15926;DHT22;8062;53.882;10.642;2023-04-22T06:34:56;14.00;95.90
15926;DHT22;8062;53.882;10.642;2023-04-22T06:36:16;14.40;95.20
15926;DHT22;8062;53.882;10.642;2023-04-22T06:37:39;14.90;94.00
15926;DHT22;8062;53.882;10.642;2023-04-22T06:39:00;15.40;92.60
15926;DHT22;8062;53.882;10.642;2023-04-22T06:40:27;15.90;92.10
15926;DHT22;8062;53.882;10.642;2023-04-22T06:41:49;16.20;91.20
15926;DHT22;8062;53.882;10.642;2023-04-22T06:43:24;16.30;91.20
15926;DHT22;8062;53.882;10.642;2023-04-22T06:45:06;16.60;91.60
15926;DHT22;8062;53.882;10.642;2023-04-22T06:46:35;16.60;90.30
15926;DHT22;8062;53.882;10.642;2023-04-22T06:48:17;16.90;90.40
15926;DHT22;8062;53.882;10.642;2023-04-22T06:49:56;17.10;89.40
15926;DHT22;8062;53.882;10.642;2023-04-22T06:51:18;17.50;89.60
15926;DHT22;8062;53.882;10.642;2023-04-22T06:52:39;17.70;89.30
15926;DHT22;8062;53.882;10.642;2023-04-22T06:53:58;18.10;89.10
15926;DHT22;8062;53.882;10.642;2023-04-22T06:55:18;18.20;88.00
15926;DHT22;8062;53.882;10.642;2023-04-22T06:56:38;18.40;85.80
15926;DHT22;8062;53.882;10.642;2023-04-22T06:57:57;18.70;87.60
15926;DHT22;8062;53.882;10.642;2023-04-22T06:59:18;18.90;84.50
15926;DHT22;8062;53.882;10.642;2023-04-22T07:00:39;19.30;83.50
15926;DHT22;8062;53.882;10.642;2023-04-22T07:01:58;19.20;83.60
15926;DHT22;8062;53.882;10.642;2023-04-22T07:03:20;19.20;82.40
15926;DHT22;8062;53.882;10.642;2023-04-22T07:04:49;19.40;83.80
15926;DHT22;8062;53.882;10.642;2023-04-22T07:06:09;19.80;82.70
15926;DHT22;8062;53.882;10.642;2023-04-22T07:07:29;20.00;80.80
15926;DHT22;8062;53.882;10.642;2023-04-22T07:08:48;20.10;80.50
15926;DHT22;8062;53.882;10.642;2023-04-22T07:10:08;20.20;81.90
15926;DHT22;8062;53.882;10.642;2023-04-22T07:11:35;20.10;81.70
15926;DHT22;8062;53.882;10.642;2023-04-22T07:13:15;19.90;82.40
15926;DHT22;8062;53.882;10.642;2023-04-22T07:14:36;19.90;80.90
15926;DHT22;8062;53.882;10.642;2023-04-22T07:15:55;20.00;81.90
15926;DHT22;8062;53.882;10.642;2023-04-22T07:17:15;20.00;80.20
15926;DHT22;8062;53.882;10.642;2023-04-22T07:18:37;20.00;84.10
15926;DHT22;8062;53.882;10.642;2023-04-22T07:19:58;19.90;81.50
15926;DHT22;8062;53.882;10.642;2023-04-22T07:21:17;20.00;81.00
15926;DHT22;8062;53.882;10.642;2023-04-22T07:22:37;19.90;80.60
15926;DHT22;8062;53.882;10.642;2023-04-22T07:23:57;19.90;81.10
15926;DHT22;8062;53.882;10.642;2023-04-22T07:25:17;19.80;84.30
15926;DHT22;8062;53.882;10.642;2023-04-22T07:26:37;19.70;81.60
15926;DHT22;8062;53.882;10.642;2023-04-22T07:27:56;19.90;83.80
15926;DHT22;8062;53.882;10.642;2023-04-22T07:29:16;20.20;83.40
15926;DHT22;8062;53.882;10.642;2023-04-22T07:30:35;20.20;84.30
15926;DHT22;8062;53.882;10.642;2023-04-22T07:31:55;20.20;82.10
15926;DHT22;8062;53.882;10.642;2023-04-22T07:33:15;20.20;81.40
15926;DHT22;8062;53.882;10.642;2023-04-22T07:34:34;20.10;81.90
15926;DHT22;8062;53.882;10.642;2023-04-22T07:35:54;20.10;84.80
15926;DHT22;8062;53.882;10.642;2023-04-22T07:37:13;20.10;81.80
15926;DHT22;8062;53.882;10.642;2023-04-22T07:38:33;20.10;84.20
15926;DHT22;8062;53.882;10.642;2023-04-22T07:39:53;19.90;81.60
15926;DHT22;8062;53.882;10.642;2023-04-22T07:41:12;20.00;84.40
15926;DHT22;8062;53.882;10.642;2023-04-22T07:42:32;20.10;83.20
15926;DHT22;8062;53.882;10.642;2023-04-22T07:43:51;20.10;82.30
15926;DHT22;8062;53.882;10.642;2023-04-22T07:45:10;20.20;81.70
15926;DHT22;8062;53.882;10.642;2023-04-22T07:46:30;20.10;81.60
15926;DHT22;8062;53.882;10.642;2023-04-22T07:47:50;19.90;82.30
15926;DHT22;8062;53.882;10.642;2023-04-22T07:49:09;19.70;81.50
15926;DHT22;8062;53.882;10.642;2023-04-22T07:50:32;19.60;83.10
15926;DHT22;8062;53.882;10.642;2023-04-22T07:51:51;19.50;84.40
15926;DHT22;8062;53.882;10.642;2023-04-22T07:53:11;19.30;85.60
15926;DHT22;8062;53.882;10.642;2023-04-22T07:54:31;19.30;83.70
15926;DHT22;8062;53.882;10.642;2023-04-22T07:55:51;19.40;89.80
15926;DHT22;8062;53.882;10.642;2023-04-22T07:57:11;19.40;84.60
15926;DHT22;8062;53.882;10.642;2023-04-22T07:58:31;19.70;85.20
15926;DHT22;8062;53.882;10.642;2023-04-22T07:59:51;19.80;87.10
15926;DHT22;8062;53.882;10.642;2023-04-22T08:01:10;19.90;84.80
15926;DHT22;8062;53.882;10.642;2023-04-22T08:02:30;20.30;87.60
15926;DHT22;8062;53.882;10.642;2023-04-22T08:03:50;20.50;85.80
15926;DHT22;8062;53.882;10.642;2023-04-22T08:05:09;20.40;86.90
15926;DHT22;8062;53.882;10.642;2023-04-22T08:06:29;20.40;83.80
15926;DHT22;8062;53.882;10.642;2023-04-22T08:07:49;20.60;89.00
15926;DHT22;8062;53.882;10.642;2023-04-22T08:09:09;20.70;86.80
15926;DHT22;8062;53.882;10.642;2023-04-22T08:10:29;20.80;89.50
15926;DHT22;8062;53.882;10.642;2023-04-22T08:11:49;20.90;90.00
15926;DHT22;8062;53.882;10.642;2023-04-22T08:13:08;20.90;88.00
15926;DHT22;8062;53.882;10.642;2023-04-22T08:14:28;20.80;85.00
15926;DHT22;8062;53.882;10.642;2023-04-22T08:15:48;20.90;83.50
15926;DHT22;8062;53.882;10.642;2023-04-22T08:17:07;20.70;81.40
15926;DHT22;8062;53.882;10.642;2023-04-22T08:18:27;20.60;85.50
15926;DHT22;8062;53.882;10.642;2023-04-22T08:19:47;20.70;81.40
15926;DHT22;8062;53.882;10.642;2023-04-22T08:21:07;20.70;81.30
15926;DHT22;8062;53.882;10.642;2023-04-22T08:22:26;20.50;81.30
15926;DHT22;8062;53.882;10.642;2023-04-22T08:23:46;20.60;85.60
15926;DHT22;8062;53.882;10.642;2023-04-22T08:25:06;20.50;80.80
15926;DHT22;8062;53.882;10.642;2023-04-22T08:26:27;20.50;80.40
15926;DHT22;8062;53.882;10.642;2023-04-22T08:27:46;20.50;82.00
15926;DHT22;8062;53.882;10.642;2023-04-22T08:29:06;20.40;83.90
15926;DHT22;8062;53.882;10.642;2023-04-22T08:30:25;20.30;81.20
15926;DHT22;8062;53.882;10.642;2023-04-22T08:31:45;20.40;83.50
15926;DHT22;8062;53.882;10.642;2023-04-22T08:33:05;20.20;82.00
15926;DHT22;8062;53.882;10.642;2023-04-22T08:34:24;20.10;82.90
15926;DHT22;8062;53.882;10.642;2023-04-22T08:35:46;20.20;82.90
15926;DHT22;8062;53.882;10.642;2023-04-22T08:37:06;20.40;83.50
15926;DHT22;8062;53.882;10.642;2023-04-22T08:38:26;20.70;87.90